Portada
METAR-TAF:

METAR-TAF

Aeroports :

Aeroport de Gran Canària

Gran Canària, Espanya

latitud: 27-56N, longitud: 015-23W, altitud: 23 m

Observació

L'informe es va fer fa 17 minuts, a les 19:30 UTC
Vent 4 kt del Sud
Temperatura 20°C
Humitat 73%
Pressió 1017 hPa
Visibilitat 10 km o més
Núvols disperses a una alçada de 2800 ft
Cel ennuvolat a una alçada de 4500 ft

METAR: GCLP 221930Z 17004KT 9999 SCT028 BKN045 20/15 Q1017 NOSIG

Hora: 20:47 (19:47 UTC)

Pronòstic

L'informe es va fer fa 4 hores i 29 minuts, a les 15:18 UTC
Pronòstic vàlid del 22 a les 15 UTC al 23 a les 15 UTC
Vent 7 kt del Sud/Sud-Est
Visibilitat 10 km o més
Cel ennuvolat a una alçada de 3000 ft
Evolucionant progressivament
l' 22 a les 20 UTC al 22 a les 22 UTC
Vent 12 kt del Nord
Probabilitat 30% :
Temporalment
l' 22 a les 21 UTC al 23 a les 03 UTC
plugim, pluja

TAF: GCLP 221518Z 2215/2315 16007KT 9999 BKN030 TX22/2314Z TN16/2305Z BECMG 2220/2222 35012KT PROB30 TEMPO 2221/2303 DZRA

Observacions i pronòstics meteorològics de més de 4000 aeroports (METAR i TAF).

Les estacions disponibles són els punts grocs i vermells al mapa.

Posi el ratolí al punt desitjat per veure el nom de l'estació.

Feu clic per veure les observacions i els pronòstics meteorològics.

Per canviar el mapa: feu clic els botons verds amb una creu de color negre per apropar; al botó verd amb un guió per allunyar la imatge; o en les fletxes verdes per a mapes adjacents.


METAR-TAF: